sensor_id;sensor_type;location;lat;lon;timestamp;temperature;humidity
63771;DHT22;60282;43.862;18.430;2023-12-20T00:01:55;0.30;99.90
63771;DHT22;60282;43.862;18.430;2023-12-20T00:04:20;0.30;99.90
63771;DHT22;60282;43.862;18.430;2023-12-20T00:06:46;0.30;99.90
63771;DHT22;60282;43.862;18.430;2023-12-20T00:09:12;0.30;99.90
63771;DHT22;60282;43.862;18.430;2023-12-20T00:11:38;0.30;99.90
63771;DHT22;60282;43.862;18.430;2023-12-20T00:14:03;0.30;99.90
63771;DHT22;60282;43.862;18.430;2023-12-20T00:16:29;0.30;99.90
63771;DHT22;60282;43.862;18.430;2023-12-20T00:18:57;0.30;99.90
63771;DHT22;60282;43.862;18.430;2023-12-20T00:21:23;0.30;99.90
63771;DHT22;60282;43.862;18.430;2023-12-20T00:23:49;0.30;99.90
63771;DHT22;60282;43.862;18.430;2023-12-20T00:26:15;0.30;99.90
63771;DHT22;60282;43.862;18.430;2023-12-20T00:28:40;0.30;99.90
63771;DHT22;60282;43.862;18.430;2023-12-20T00:31:08;0.30;99.90
63771;DHT22;60282;43.862;18.430;2023-12-20T00:33:34;0.30;99.90
63771;DHT22;60282;43.862;18.430;2023-12-20T00:35:59;0.30;99.90
63771;DHT22;60282;43.862;18.430;2023-12-20T00:38:25;0.30;99.90
63771;DHT22;60282;43.862;18.430;2023-12-20T00:40:52;0.20;99.90
63771;DHT22;60282;43.862;18.430;2023-12-20T00:43:18;0.20;99.90
63771;DHT22;60282;43.862;18.430;2023-12-20T00:45:43;0.20;99.90
63771;DHT22;60282;43.862;18.430;2023-12-20T00:48:09;2.10;99.90
63771;DHT22;60282;43.862;18.430;2023-12-20T00:50:35;0.20;99.90
63771;DHT22;60282;43.862;18.430;2023-12-20T00:53:01;0.20;99.90
63771;DHT22;60282;43.862;18.430;2023-12-20T00:55:27;0.20;99.90
63771;DHT22;60282;43.862;18.430;2023-12-20T00:57:52;0.20;99.90
63771;DHT22;60282;43.862;18.430;2023-12-20T01:00:19;0.20;99.90
63771;DHT22;60282;43.862;18.430;2023-12-20T01:02:45;0.10;99.90
63771;DHT22;60282;43.862;18.430;2023-12-20T01:05:14;0.10;99.90
63771;DHT22;60282;43.862;18.430;2023-12-20T01:07:40;0.20;99.90
63771;DHT22;60282;43.862;18.430;2023-12-20T01:10:06;0.10;99.90
63771;DHT22;60282;43.862;18.430;2023-12-20T01:12:32;0.10;99.90
63771;DHT22;60282;43.862;18.430;2023-12-20T01:14:58;0.00;99.90
63771;DHT22;60282;43.862;18.430;2023-12-20T01:17:24;0.00;99.90
63771;DHT22;60282;43.862;18.430;2023-12-20T01:19:49;0.00;99.90
63771;DHT22;60282;43.862;18.430;2023-12-20T01:22:15;0.00;99.90
63771;DHT22;60282;43.862;18.430;2023-12-20T01:24:44;-0.10;99.90
63771;DHT22;60282;43.862;18.430;2023-12-20T01:27:10;-0.10;99.90
63771;DHT22;60282;43.862;18.430;2023-12-20T01:29:35;0.00;99.90
63771;DHT22;60282;43.862;18.430;2023-12-20T01:32:01;0.00;99.90
63771;DHT22;60282;43.862;18.430;2023-12-20T01:34:27;0.00;99.90
63771;DHT22;60282;43.862;18.430;2023-12-20T01:36:53;0.00;99.90
63771;DHT22;60282;43.862;18.430;2023-12-20T01:39:18;0.00;99.90
63771;DHT22;60282;43.862;18.430;2023-12-20T01:41:44;0.00;99.90
63771;DHT22;60282;43.862;18.430;2023-12-20T01:44:11;0.00;99.90
63771;DHT22;60282;43.862;18.430;2023-12-20T01:46:37;0.00;99.90
63771;DHT22;60282;43.862;18.430;2023-12-20T01:49:03;0.00;99.90
63771;DHT22;60282;43.862;18.430;2023-12-20T01:51:29;-0.10;99.90
63771;DHT22;60282;43.862;18.430;2023-12-20T01:53:57;-0.10;99.90
63771;DHT22;60282;43.862;18.430;2023-12-20T01:56:24;-0.20;99.90
63771;DHT22;60282;43.862;18.430;2023-12-20T01:58:50;-0.10;99.90
63771;DHT22;60282;43.862;18.430;2023-12-20T02:01:16;-0.20;99.90
63771;DHT22;60282;43.862;18.430;2023-12-20T02:03:45;-0.20;99.90
63771;DHT22;60282;43.862;18.430;2023-12-20T02:06:11;-0.20;99.90
63771;DHT22;60282;43.862;18.430;2023-12-20T02:08:37;-0.30;99.90
63771;DHT22;60282;43.862;18.430;2023-12-20T02:11:03;-0.30;99.90
63771;DHT22;60282;43.862;18.430;2023-12-20T02:13:30;-0.30;99.90
63771;DHT22;60282;43.862;18.430;2023-12-20T02:15:58;-0.30;99.90
63771;DHT22;60282;43.862;18.430;2023-12-20T02:18:24;-0.30;99.90
63771;DHT22;60282;43.862;18.430;2023-12-20T02:20:50;-0.20;99.90
63771;DHT22;60282;43.862;18.430;2023-12-20T02:23:16;-0.20;99.90
63771;DHT22;60282;43.862;18.430;2023-12-20T02:25:42;-0.10;99.90
63771;DHT22;60282;43.862;18.430;2023-12-20T02:28:08;-0.10;99.90
63771;DHT22;60282;43.862;18.430;2023-12-20T02:30:33;-0.10;99.90
63771;DHT22;60282;43.862;18.430;2023-12-20T02:33:00;-0.20;99.90
63771;DHT22;60282;43.862;18.430;2023-12-20T02:35:26;-0.20;99.90
63771;DHT22;60282;43.862;18.430;2023-12-20T02:37:52;-0.20;99.90
63771;DHT22;60282;43.862;18.430;2023-12-20T02:40:18;-0.20;99.90
63771;DHT22;60282;43.862;18.430;2023-12-20T02:42:43;-0.30;99.90
63771;DHT22;60282;43.862;18.430;2023-12-20T02:45:09;-0.30;99.90
63771;DHT22;60282;43.862;18.430;2023-12-20T02:47:35;-0.20;99.90
63771;DHT22;60282;43.862;18.430;2023-12-20T02:50:01;-0.20;99.90
63771;DHT22;60282;43.862;18.430;2023-12-20T02:52:28;-0.20;99.90
63771;DHT22;60282;43.862;18.430;2023-12-20T02:54:54;-0.30;99.90
63771;DHT22;60282;43.862;18.430;2023-12-20T02:57:20;-0.30;99.90
63771;DHT22;60282;43.862;18.430;2023-12-20T02:59:45;-0.40;99.90
63771;DHT22;60282;43.862;18.430;2023-12-20T03:02:11;-0.50;99.90
63771;DHT22;60282;43.862;18.430;2023-12-20T03:04:37;-1.40;99.90
63771;DHT22;60282;43.862;18.430;2023-12-20T03:07:03;-0.50;99.90
63771;DHT22;60282;43.862;18.430;2023-12-20T03:09:30;-0.60;99.90
63771;DHT22;60282;43.862;18.430;2023-12-20T03:11:56;-0.70;99.90
63771;DHT22;60282;43.862;18.430;2023-12-20T03:14:22;-0.70;99.90
63771;DHT22;60282;43.862;18.430;2023-12-20T03:16:49;-0.80;99.90
63771;DHT22;60282;43.862;18.430;2023-12-20T03:19:16;-0.80;99.90
63771;DHT22;60282;43.862;18.430;2023-12-20T03:21:42;-0.80;99.90
63771;DHT22;60282;43.862;18.430;2023-12-20T03:24:08;-0.80;99.90
63771;DHT22;60282;43.862;18.430;2023-12-20T03:26:33;-0.60;99.90
63771;DHT22;60282;43.862;18.430;2023-12-20T03:28:59;-0.80;99.90
63771;DHT22;60282;43.862;18.430;2023-12-20T03:31:25;-0.80;99.90
63771;DHT22;60282;43.862;18.430;2023-12-20T03:33:50;-0.80;99.90
63771;DHT22;60282;43.862;18.430;2023-12-20T03:36:19;-0.80;99.90
63771;DHT22;60282;43.862;18.430;2023-12-20T03:38:45;-0.80;99.90
63771;DHT22;60282;43.862;18.430;2023-12-20T03:41:12;-2.50;99.90
63771;DHT22;60282;43.862;18.430;2023-12-20T03:43:38;-0.80;99.90
63771;DHT22;60282;43.862;18.430;2023-12-20T03:46:04;-0.80;99.90
63771;DHT22;60282;43.862;18.430;2023-12-20T03:48:33;-0.80;99.90
63771;DHT22;60282;43.862;18.430;2023-12-20T03:50:59;-0.80;99.90
63771;DHT22;60282;43.862;18.430;2023-12-20T03:53:25;-0.80;99.90
63771;DHT22;60282;43.862;18.430;2023-12-20T03:55:50;-0.70;99.90
63771;DHT22;60282;43.862;18.430;2023-12-20T03:58:16;-0.70;99.90
63771;DHT22;60282;43.862;18.430;2023-12-20T04:00:42;-0.60;99.90
63771;DHT22;60282;43.862;18.430;2023-12-20T04:03:08;-0.60;99.90
63771;DHT22;60282;43.862;18.430;2023-12-20T04:05:33;-0.60;99.90
63771;DHT22;60282;43.862;18.430;2023-12-20T04:08:01;-0.60;99.90
63771;DHT22;60282;43.862;18.430;2023-12-20T04:10:27;-0.60;99.90
63771;DHT22;60282;43.862;18.430;2023-12-20T04:12:53;-0.60;99.90
63771;DHT22;60282;43.862;18.430;2023-12-20T04:15:20;-0.60;99.90
63771;DHT22;60282;43.862;18.430;2023-12-20T04:17:46;-0.60;99.90
63771;DHT22;60282;43.862;18.430;2023-12-20T04:20:12;-0.50;99.90
63771;DHT22;60282;43.862;18.430;2023-12-20T04:22:37;-0.50;99.90
63771;DHT22;60282;43.862;18.430;2023-12-20T04:25:03;-0.50;99.90
63771;DHT22;60282;43.862;18.430;2023-12-20T04:27:29;-0.50;99.90
63771;DHT22;60282;43.862;18.430;2023-12-20T04:29:55;-0.50;99.90
63771;DHT22;60282;43.862;18.430;2023-12-20T04:32:21;-0.50;99.90
63771;DHT22;60282;43.862;18.430;2023-12-20T04:34:47;-0.50;99.90
63771;DHT22;60282;43.862;18.430;2023-12-20T04:37:13;-0.50;99.90
63771;DHT22;60282;43.862;18.430;2023-12-20T04:39:38;-0.50;99.90
63771;DHT22;60282;43.862;18.430;2023-12-20T04:42:08;-0.60;99.90
63771;DHT22;60282;43.862;18.430;2023-12-20T04:44:34;-0.60;99.90
63771;DHT22;60282;43.862;18.430;2023-12-20T04:46:59;-0.60;99.90
63771;DHT22;60282;43.862;18.430;2023-12-20T04:49:25;-0.60;99.90
63771;DHT22;60282;43.862;18.430;2023-12-20T04:51:52;-0.60;99.90
63771;DHT22;60282;43.862;18.430;2023-12-20T04:54:18;-0.60;99.90
63771;DHT22;60282;43.862;18.430;2023-12-20T04:56:44;-0.70;99.90
63771;DHT22;60282;43.862;18.430;2023-12-20T04:59:09;-0.70;99.90
63771;DHT22;60282;43.862;18.430;2023-12-20T05:01:35;-0.80;99.90
63771;DHT22;60282;43.862;18.430;2023-12-20T05:04:01;-0.90;99.90
63771;DHT22;60282;43.862;18.430;2023-12-20T05:06:30;-0.90;99.90
63771;DHT22;60282;43.862;18.430;2023-12-20T05:08:55;-0.60;99.90
63771;DHT22;60282;43.862;18.430;2023-12-20T05:11:21;-0.80;99.90
63771;DHT22;60282;43.862;18.430;2023-12-20T05:13:47;-0.80;99.90
63771;DHT22;60282;43.862;18.430;2023-12-20T05:16:13;-0.90;99.90
63771;DHT22;60282;43.862;18.430;2023-12-20T05:18:40;-0.90;99.90
63771;DHT22;60282;43.862;18.430;2023-12-20T05:21:07;-0.90;99.90
63771;DHT22;60282;43.862;18.430;2023-12-20T05:23:33;-0.80;99.90
63771;DHT22;60282;43.862;18.430;2023-12-20T05:25:58;-0.80;99.90
63771;DHT22;60282;43.862;18.430;2023-12-20T05:28:24;-0.70;99.90
63771;DHT22;60282;43.862;18.430;2023-12-20T05:30:51;-0.70;99.90
63771;DHT22;60282;43.862;18.430;2023-12-20T05:33:17;-0.70;99.90
63771;DHT22;60282;43.862;18.430;2023-12-20T05:35:42;-0.70;99.90
63771;DHT22;60282;43.862;18.430;2023-12-20T05:38:09;-0.70;99.90
63771;DHT22;60282;43.862;18.430;2023-12-20T05:40:35;-0.70;99.90
63771;DHT22;60282;43.862;18.430;2023-12-20T05:43:00;-0.70;99.90
63771;DHT22;60282;43.862;18.430;2023-12-20T05:45:26;-0.70;99.90
63771;DHT22;60282;43.862;18.430;2023-12-20T05:47:52;-0.60;99.90
63771;DHT22;60282;43.862;18.430;2023-12-20T05:50:18;-0.70;99.90
63771;DHT22;60282;43.862;18.430;2023-12-20T05:52:44;-0.70;99.90
63771;DHT22;60282;43.862;18.430;2023-12-20T05:55:09;-0.70;99.90
63771;DHT22;60282;43.862;18.430;2023-12-20T05:57:35;-0.70;99.90
63771;DHT22;60282;43.862;18.430;2023-12-20T06:00:01;-0.70;99.90
63771;DHT22;60282;43.862;18.430;2023-12-20T06:02:27;-0.70;99.90
63771;DHT22;60282;43.862;18.430;2023-12-20T06:04:53;-0.80;99.90
63771;DHT22;60282;43.862;18.430;2023-12-20T06:07:19;-0.80;99.90
63771;DHT22;60282;43.862;18.430;2023-12-20T06:09:45;-0.80;99.90
63771;DHT22;60282;43.862;18.430;2023-12-20T06:12:10;-0.80;99.90
63771;DHT22;60282;43.862;18.430;2023-12-20T06:14:36;-0.90;99.90
63771;DHT22;60282;43.862;18.430;2023-12-20T06:17:02;-1.00;99.90
63771;DHT22;60282;43.862;18.430;2023-12-20T06:19:28;-0.90;99.90
63771;DHT22;60282;43.862;18.430;2023-12-20T06:21:54;-0.80;99.90
63771;DHT22;60282;43.862;18.430;2023-12-20T06:24:20;-0.90;99.90
63771;DHT22;60282;43.862;18.430;2023-12-20T06:26:47;-0.90;99.90
63771;DHT22;60282;43.862;18.430;2023-12-20T06:29:15;0.60;99.90
63771;DHT22;60282;43.862;18.430;2023-12-20T06:31:42;-0.80;99.90
63771;DHT22;60282;43.862;18.430;2023-12-20T06:34:07;-0.70;99.90
63771;DHT22;60282;43.862;18.430;2023-12-20T06:36:33;-0.70;99.90
63771;DHT22;60282;43.862;18.430;2023-12-20T06:38:59;-0.70;99.90
63771;DHT22;60282;43.862;18.430;2023-12-20T06:41:25;-0.80;99.90
63771;DHT22;60282;43.862;18.430;2023-12-20T06:43:50;-0.80;99.90
63771;DHT22;60282;43.862;18.430;2023-12-20T06:46:20;-0.80;99.90
63771;DHT22;60282;43.862;18.430;2023-12-20T06:48:46;-0.70;99.90
63771;DHT22;60282;43.862;18.430;2023-12-20T06:51:16;-0.60;99.90
63771;DHT22;60282;43.862;18.430;2023-12-20T06:53:43;-0.50;99.90
63771;DHT22;60282;43.862;18.430;2023-12-20T06:56:11;-0.50;99.90
63771;DHT22;60282;43.862;18.430;2023-12-20T06:58:37;-0.50;99.90
63771;DHT22;60282;43.862;18.430;2023-12-20T07:01:03;-0.40;99.90
63771;DHT22;60282;43.862;18.430;2023-12-20T07:03:30;-0.40;99.90
63771;DHT22;60282;43.862;18.430;2023-12-20T07:05:55;-0.40;99.90
63771;DHT22;60282;43.862;18.430;2023-12-20T07:08:21;-0.40;99.90
63771;DHT22;60282;43.862;18.430;2023-12-20T07:10:47;-0.50;99.90
63771;DHT22;60282;43.862;18.430;2023-12-20T07:13:13;-0.40;99.90
63771;DHT22;60282;43.862;18.430;2023-12-20T07:15:39;-0.40;99.90
63771;DHT22;60282;43.862;18.430;2023-12-20T07:18:05;-0.40;99.90
63771;DHT22;60282;43.862;18.430;2023-12-20T07:20:32;-0.40;99.90
63771;DHT22;60282;43.862;18.430;2023-12-20T07:22:58;-0.30;99.90
63771;DHT22;60282;43.862;18.430;2023-12-20T07:25:25;-0.30;99.90
63771;DHT22;60282;43.862;18.430;2023-12-20T07:27:50;-0.20;99.90
63771;DHT22;60282;43.862;18.430;2023-12-20T07:30:17;-0.30;99.90
63771;DHT22;60282;43.862;18.430;2023-12-20T07:32:42;-0.30;99.90
63771;DHT22;60282;43.862;18.430;2023-12-20T07:35:08;-0.30;99.90
63771;DHT22;60282;43.862;18.430;2023-12-20T07:37:34;-0.40;99.90
63771;DHT22;60282;43.862;18.430;2023-12-20T07:40:00;1.40;99.90
63771;DHT22;60282;43.862;18.430;2023-12-20T07:42:27;-0.40;99.90
63771;DHT22;60282;43.862;18.430;2023-12-20T07:44:53;-0.40;99.90
63771;DHT22;60282;43.862;18.430;2023-12-20T07:47:22;-0.50;99.90
63771;DHT22;60282;43.862;18.430;2023-12-20T07:49:57;-0.50;99.90
63771;DHT22;60282;43.862;18.430;2023-12-20T07:52:23;-0.40;99.90
63771;DHT22;60282;43.862;18.430;2023-12-20T07:54:49;-0.40;99.90
63771;DHT22;60282;43.862;18.430;2023-12-20T07:57:14;-0.30;99.90
63771;DHT22;60282;43.862;18.430;2023-12-20T07:59:40;-0.30;99.90
63771;DHT22;60282;43.862;18.430;2023-12-20T08:02:06;-0.20;99.90
63771;DHT22;60282;43.862;18.430;2023-12-20T08:04:32;-0.20;99.90
63771;DHT22;60282;43.862;18.430;2023-12-20T08:06:58;-0.10;99.90
63771;DHT22;60282;43.862;18.430;2023-12-20T08:09:24;-0.10;99.90
63771;DHT22;60282;43.862;18.430;2023-12-20T08:11:51;-0.10;99.90
63771;DHT22;60282;43.862;18.430;2023-12-20T08:14:17;-0.10;99.90
63771;DHT22;60282;43.862;18.430;2023-12-20T08:16:43;-0.10;99.90
63771;DHT22;60282;43.862;18.430;2023-12-20T08:19:09;-0.10;99.90
63771;DHT22;60282;43.862;18.430;2023-12-20T08:21:34;-0.10;99.90
63771;DHT22;60282;43.862;18.430;2023-12-20T08:24:00;-0.10;99.90
63771;DHT22;60282;43.862;18.430;2023-12-20T08:26:33;-0.10;99.90
63771;DHT22;60282;43.862;18.430;2023-12-20T08:28:59;-1.70;99.90
63771;DHT22;60282;43.862;18.430;2023-12-20T08:31:27;0.00;99.90
63771;DHT22;60282;43.862;18.430;2023-12-20T08:33:54;-0.10;99.90
63771;DHT22;60282;43.862;18.430;2023-12-20T08:36:20;0.00;99.90
63771;DHT22;60282;43.862;18.430;2023-12-20T08:38:48;0.00;99.90
63771;DHT22;60282;43.862;18.430;2023-12-20T08:41:17;0.10;99.90
63771;DHT22;60282;43.862;18.430;2023-12-20T08:43:46;0.10;99.90
63771;DHT22;60282;43.862;18.430;2023-12-20T08:46:13;0.10;99.90
63771;DHT22;60282;43.862;18.430;2023-12-20T08:48:42;0.00;99.90
63771;DHT22;60282;43.862;18.430;2023-12-20T08:51:07;0.20;99.90
63771;DHT22;60282;43.862;18.430;2023-12-20T08:53:34;0.20;99.90
63771;DHT22;60282;43.862;18.430;2023-12-20T08:56:03;0.30;99.90
63771;DHT22;60282;43.862;18.430;2023-12-20T08:58:29;0.30;99.90
63771;DHT22;60282;43.862;18.430;2023-12-20T09:00:55;0.30;99.90
63771;DHT22;60282;43.862;18.430;2023-12-20T09:03:20;0.30;99.90
63771;DHT22;60282;43.862;18.430;2023-12-20T09:05:46;0.30;99.90
63771;DHT22;60282;43.862;18.430;2023-12-20T09:08:32;0.40;99.90
63771;DHT22;60282;43.862;18.430;2023-12-20T09:10:58;0.40;99.90
63771;DHT22;60282;43.862;18.430;2023-12-20T09:13:24;0.40;99.90
63771;DHT22;60282;43.862;18.430;2023-12-20T09:15:58;0.40;99.90
63771;DHT22;60282;43.862;18.430;2023-12-20T09:18:24;3.20;99.90
63771;DHT22;60282;43.862;18.430;2023-12-20T09:20:50;2.80;99.90
63771;DHT22;60282;43.862;18.430;2023-12-20T09:23:15;2.50;99.90
63771;DHT22;60282;43.862;18.430;2023-12-20T09:25:42;2.30;99.90
63771;DHT22;60282;43.862;18.430;2023-12-20T09:28:10;2.00;99.90
63771;DHT22;60282;43.862;18.430;2023-12-20T09:30:36;1.80;99.90
63771;DHT22;60282;43.862;18.430;2023-12-20T09:33:05;1.80;99.90
63771;DHT22;60282;43.862;18.430;2023-12-20T09:35:35;1.70;99.90
63771;DHT22;60282;43.862;18.430;2023-12-20T09:38:10;1.70;99.90
63771;DHT22;60282;43.862;18.430;2023-12-20T09:40:56;1.90;99.90
63771;DHT22;60282;43.862;18.430;2023-12-20T09:43:30;1.90;99.90
63771;DHT22;60282;43.862;18.430;2023-12-20T09:45:59;2.00;99.90
63771;DHT22;60282;43.862;18.430;2023-12-20T09:48:26;2.00;99.90
63771;DHT22;60282;43.862;18.430;2023-12-20T09:50:53;2.00;99.90
63771;DHT22;60282;43.862;18.430;2023-12-20T09:53:21;2.10;99.90
63771;DHT22;60282;43.862;18.430;2023-12-20T09:55:49;2.20;99.90
63771;DHT22;60282;43.862;18.430;2023-12-20T09:58:15;2.40;99.90
63771;DHT22;60282;43.862;18.430;2023-12-20T10:00:41;2.60;99.90
63771;DHT22;60282;43.862;18.430;2023-12-20T10:03:08;2.80;99.90
63771;DHT22;60282;43.862;18.430;2023-12-20T10:05:41;3.10;99.90
63771;DHT22;60282;43.862;18.430;2023-12-20T10:08:09;3.30;99.90
63771;DHT22;60282;43.862;18.430;2023-12-20T10:10:39;3.50;99.90
63771;DHT22;60282;43.862;18.430;2023-12-20T10:13:08;3.60;99.90
63771;DHT22;60282;43.862;18.430;2023-12-20T10:15:37;3.70;99.90
63771;DHT22;60282;43.862;18.430;2023-12-20T10:18:04;3.90;99.90
63771;DHT22;60282;43.862;18.430;2023-12-20T10:20:37;4.00;99.90
63771;DHT22;60282;43.862;18.430;2023-12-20T10:23:12;4.20;99.90
63771;DHT22;60282;43.862;18.430;2023-12-20T10:28:40;1.60;99.90
63771;DHT22;60282;43.862;18.430;2023-12-20T10:31:30;4.80;99.90
63771;DHT22;60282;43.862;18.430;2023-12-20T10:34:01;3.70;99.90
63771;DHT22;60282;43.862;18.430;2023-12-20T10:36:35;4.40;99.90
63771;DHT22;60282;43.862;18.430;2023-12-20T10:39:01;4.50;99.90
63771;DHT22;60282;43.862;18.430;2023-12-20T10:41:32;4.20;99.90
63771;DHT22;60282;43.862;18.430;2023-12-20T10:44:16;4.20;99.90
63771;DHT22;60282;43.862;18.430;2023-12-20T10:46:51;4.20;99.90
63771;DHT22;60282;43.862;18.430;2023-12-20T10:49:25;4.30;99.90
63771;DHT22;60282;43.862;18.430;2023-12-20T10:51:52;4.40;99.90
63771;DHT22;60282;43.862;18.430;2023-12-20T10:56:46;4.50;99.90
63771;DHT22;60282;43.862;18.430;2023-12-20T10:59:14;4.50;99.90
63771;DHT22;60282;43.862;18.430;2023-12-20T11:01:43;4.50;99.90
63771;DHT22;60282;43.862;18.430;2023-12-20T11:04:15;4.50;99.90
63771;DHT22;60282;43.862;18.430;2023-12-20T11:07:16;4.40;99.90
63771;DHT22;60282;43.862;18.430;2023-12-20T11:09:40;4.20;99.90
63771;DHT22;60282;43.862;18.430;2023-12-20T11:12:49;4.20;99.90
63771;DHT22;60282;43.862;18.430;2023-12-20T11:15:20;4.20;99.90
63771;DHT22;60282;43.862;18.430;2023-12-20T11:17:47;4.00;99.90
63771;DHT22;60282;43.862;18.430;2023-12-20T11:20:35;3.90;99.90
63771;DHT22;60282;43.862;18.430;2023-12-20T11:23:02;4.20;99.90
63771;DHT22;60282;43.862;18.430;2023-12-20T11:25:28;4.00;99.90
63771;DHT22;60282;43.862;18.430;2023-12-20T11:28:10;4.10;99.90
63771;DHT22;60282;43.862;18.430;2023-12-20T11:30:53;4.00;99.90
63771;DHT22;60282;43.862;18.430;2023-12-20T11:33:24;3.90;99.90
63771;DHT22;60282;43.862;18.430;2023-12-20T11:35:51;4.10;99.90
63771;DHT22;60282;43.862;18.430;2023-12-20T11:38:20;4.00;99.90
63771;DHT22;60282;43.862;18.430;2023-12-20T11:40:48;4.10;99.90
63771;DHT22;60282;43.862;18.430;2023-12-20T11:43:38;4.10;99.90
63771;DHT22;60282;43.862;18.430;2023-12-20T11:46:08;4.20;99.90
63771;DHT22;60282;43.862;18.430;2023-12-20T11:48:39;4.20;99.90
63771;DHT22;60282;43.862;18.430;2023-12-20T11:51:12;4.20;99.90
63771;DHT22;60282;43.862;18.430;2023-12-20T11:53:40;4.30;99.90
63771;DHT22;60282;43.862;18.430;2023-12-20T11:56:08;6.20;99.90
63771;DHT22;60282;43.862;18.430;2023-12-20T11:58:34;4.60;99.90
63771;DHT22;60282;43.862;18.430;2023-12-20T12:01:01;4.80;99.90
63771;DHT22;60282;43.862;18.430;2023-12-20T12:03:30;5.00;99.90
63771;DHT22;60282;43.862;18.430;2023-12-20T12:06:05;5.10;99.90
63771;DHT22;60282;43.862;18.430;2023-12-20T12:08:31;5.30;99.90
63771;DHT22;60282;43.862;18.430;2023-12-20T12:10:57;5.50;99.90
63771;DHT22;60282;43.862;18.430;2023-12-20T12:13:24;5.70;99.90
63771;DHT22;60282;43.862;18.430;2023-12-20T12:15:54;5.80;99.90
63771;DHT22;60282;43.862;18.430;2023-12-20T12:18:20;6.00;99.90
63771;DHT22;60282;43.862;18.430;2023-12-20T12:20:45;6.10;99.90
63771;DHT22;60282;43.862;18.430;2023-12-20T12:23:11;6.20;99.90
63771;DHT22;60282;43.862;18.430;2023-12-20T12:25:37;6.30;99.90
63771;DHT22;60282;43.862;18.430;2023-12-20T12:28:03;6.50;99.90
63771;DHT22;60282;43.862;18.430;2023-12-20T12:30:29;6.70;99.90
63771;DHT22;60282;43.862;18.430;2023-12-20T12:32:56;6.80;99.90
63771;DHT22;60282;43.862;18.430;2023-12-20T12:35:22;7.10;99.90
63771;DHT22;60282;43.862;18.430;2023-12-20T12:37:48;7.30;99.90
63771;DHT22;60282;43.862;18.430;2023-12-20T12:40:16;7.40;99.90
63771;DHT22;60282;43.862;18.430;2023-12-20T12:42:44;7.40;99.90
63771;DHT22;60282;43.862;18.430;2023-12-20T12:45:10;7.60;99.90
63771;DHT22;60282;43.862;18.430;2023-12-20T12:47:37;7.80;99.90
63771;DHT22;60282;43.862;18.430;2023-12-20T12:50:11;7.90;99.90
63771;DHT22;60282;43.862;18.430;2023-12-20T12:52:39;8.00;99.90
63771;DHT22;60282;43.862;18.430;2023-12-20T12:55:05;8.00;99.90
63771;DHT22;60282;43.862;18.430;2023-12-20T12:57:34;8.00;99.90
63771;DHT22;60282;43.862;18.430;2023-12-20T13:00:03;8.10;99.90
63771;DHT22;60282;43.862;18.430;2023-12-20T13:02:43;8.10;99.90
63771;DHT22;60282;43.862;18.430;2023-12-20T13:05:09;8.10;99.90
63771;DHT22;60282;43.862;18.430;2023-12-20T13:07:41;8.10;99.90
63771;DHT22;60282;43.862;18.430;2023-12-20T13:10:10;8.10;99.90
63771;DHT22;60282;43.862;18.430;2023-12-20T13:12:37;8.00;99.90
63771;DHT22;60282;43.862;18.430;2023-12-20T13:15:06;7.90;99.90
63771;DHT22;60282;43.862;18.430;2023-12-20T13:17:32;7.80;99.90
63771;DHT22;60282;43.862;18.430;2023-12-20T13:19:57;8.90;99.90
63771;DHT22;60282;43.862;18.430;2023-12-20T13:22:23;7.70;99.90
63771;DHT22;60282;43.862;18.430;2023-12-20T13:24:52;7.70;99.90
63771;DHT22;60282;43.862;18.430;2023-12-20T13:27:21;7.50;99.90
63771;DHT22;60282;43.862;18.430;2023-12-20T13:29:47;7.60;99.90
63771;DHT22;60282;43.862;18.430;2023-12-20T13:32:14;7.60;99.90
63771;DHT22;60282;43.862;18.430;2023-12-20T13:34:39;7.80;99.90
63771;DHT22;60282;43.862;18.430;2023-12-20T13:37:11;7.90;99.90
63771;DHT22;60282;43.862;18.430;2023-12-20T13:39:39;8.10;99.90
63771;DHT22;60282;43.862;18.430;2023-12-20T13:42:05;8.00;99.90
63771;DHT22;60282;43.862;18.430;2023-12-20T13:44:31;8.10;99.90
63771;DHT22;60282;43.862;18.430;2023-12-20T13:46:59;8.20;99.90
63771;DHT22;60282;43.862;18.430;2023-12-20T13:49:32;8.20;99.90
63771;DHT22;60282;43.862;18.430;2023-12-20T13:51:58;8.30;99.90
63771;DHT22;60282;43.862;18.430;2023-12-20T13:54:27;8.90;99.90
63771;DHT22;60282;43.862;18.430;2023-12-20T13:56:52;8.00;99.90
63771;DHT22;60282;43.862;18.430;2023-12-20T13:59:18;8.30;99.90
63771;DHT22;60282;43.862;18.430;2023-12-20T14:01:44;8.40;99.90
63771;DHT22;60282;43.862;18.430;2023-12-20T14:04:10;8.40;99.90
63771;DHT22;60282;43.862;18.430;2023-12-20T14:06:37;8.50;99.90
63771;DHT22;60282;43.862;18.430;2023-12-20T14:09:03;8.60;99.90
63771;DHT22;60282;43.862;18.430;2023-12-20T14:11:31;8.50;99.90
63771;DHT22;60282;43.862;18.430;2023-12-20T14:13:58;8.40;99.90
63771;DHT22;60282;43.862;18.430;2023-12-20T14:16:27;8.40;99.90
63771;DHT22;60282;43.862;18.430;2023-12-20T14:18:53;8.20;99.90
63771;DHT22;60282;43.862;18.430;2023-12-20T14:21:22;8.30;99.90
63771;DHT22;60282;43.862;18.430;2023-12-20T14:23:49;8.20;99.90
63771;DHT22;60282;43.862;18.430;2023-12-20T14:26:15;8.00;99.90
63771;DHT22;60282;43.862;18.430;2023-12-20T14:28:42;7.80;99.90
63771;DHT22;60282;43.862;18.430;2023-12-20T14:31:09;7.60;99.90
63771;DHT22;60282;43.862;18.430;2023-12-20T14:33:36;7.50;99.90
63771;DHT22;60282;43.862;18.430;2023-12-20T14:36:10;7.30;99.90
63771;DHT22;60282;43.862;18.430;2023-12-20T14:38:41;7.10;99.90
63771;DHT22;60282;43.862;18.430;2023-12-20T14:41:10;7.00;99.90
63771;DHT22;60282;43.862;18.430;2023-12-20T14:43:36;6.90;99.90
63771;DHT22;60282;43.862;18.430;2023-12-20T14:46:05;6.80;99.90
63771;DHT22;60282;43.862;18.430;2023-12-20T14:48:31;7.30;99.90
63771;DHT22;60282;43.862;18.430;2023-12-20T14:53:26;6.30;99.90
63771;DHT22;60282;43.862;18.430;2023-12-20T14:55:56;6.10;99.90
63771;DHT22;60282;43.862;18.430;2023-12-20T14:58:23;6.00;99.90
63771;DHT22;60282;43.862;18.430;2023-12-20T15:00:49;5.90;99.90
63771;DHT22;60282;43.862;18.430;2023-12-20T15:03:15;5.70;99.90
63771;DHT22;60282;43.862;18.430;2023-12-20T15:05:44;5.60;99.90
63771;DHT22;60282;43.862;18.430;2023-12-20T15:08:10;5.50;99.90
63771;DHT22;60282;43.862;18.430;2023-12-20T15:10:36;5.30;99.90
63771;DHT22;60282;43.862;18.430;2023-12-20T15:13:02;5.30;99.90
63771;DHT22;60282;43.862;18.430;2023-12-20T15:15:28;5.20;99.90
63771;DHT22;60282;43.862;18.430;2023-12-20T15:17:54;5.20;99.90
63771;DHT22;60282;43.862;18.430;2023-12-20T15:20:23;4.90;99.90
63771;DHT22;60282;43.862;18.430;2023-12-20T15:22:51;4.80;99.90
63771;DHT22;60282;43.862;18.430;2023-12-20T15:25:21;7.90;99.90
63771;DHT22;60282;43.862;18.430;2023-12-20T15:27:56;4.60;99.90
63771;DHT22;60282;43.862;18.430;2023-12-20T15:30:29;4.40;99.90
63771;DHT22;60282;43.862;18.430;2023-12-20T15:32:55;4.40;99.90
63771;DHT22;60282;43.862;18.430;2023-12-20T15:35:22;4.30;99.90